sensor_id;sensor_type;location;lat;lon;timestamp;P1;P2;P0
45700;PMS5003;36277;32.852;-116.998;2023-05-13T00:00:54;5.00;5.00;4.00
45700;PMS5003;36277;32.852;-116.998;2023-05-13T00:03:20;5.20;5.20;4.40
45700;PMS5003;36277;32.852;-116.998;2023-05-13T00:05:47;4.00;4.00;3.00
45700;PMS5003;36277;32.852;-116.998;2023-05-13T00:08:13;5.40;5.40;4.60
45700;PMS5003;36277;32.852;-116.998;2023-05-13T00:10:40;6.00;6.00;5.00
45700;PMS5003;36277;32.852;-116.998;2023-05-13T00:13:07;7.00;7.00;5.00
45700;PMS5003;36277;32.852;-116.998;2023-05-13T00:15:33;6.00;6.00;5.00
45700;PMS5003;36277;32.852;-116.998;2023-05-13T00:17:59;6.20;6.20;5.20
45700;PMS5003;36277;32.852;-116.998;2023-05-13T00:20:25;6.00;6.00;5.00
45700;PMS5003;36277;32.852;-116.998;2023-05-13T00:22:52;6.80;6.80;5.00
45700;PMS5003;36277;32.852;-116.998;2023-05-13T00:25:18;6.40;6.40;5.00
45700;PMS5003;36277;32.852;-116.998;2023-05-13T00:27:44;6.00;6.00;5.00
45700;PMS5003;36277;32.852;-116.998;2023-05-13T00:30:11;8.00;8.00;6.00
45700;PMS5003;36277;32.852;-116.998;2023-05-13T00:32:37;5.80;5.80;5.00
45700;PMS5003;36277;32.852;-116.998;2023-05-13T00:35:03;4.60;4.60;4.00
45700;PMS5003;36277;32.852;-116.998;2023-05-13T00:37:30;5.40;5.40;4.40
45700;PMS5003;36277;32.852;-116.998;2023-05-13T00:39:56;5.20;5.20;5.00
45700;PMS5003;36277;32.852;-116.998;2023-05-13T00:42:24;6.80;6.80;5.60
45700;PMS5003;36277;32.852;-116.998;2023-05-13T00:44:50;5.80;5.80;5.00
45700;PMS5003;36277;32.852;-116.998;2023-05-13T00:47:17;5.00;5.00;4.00
45700;PMS5003;36277;32.852;-116.998;2023-05-13T00:49:43;5.40;5.40;5.00
45700;PMS5003;36277;32.852;-116.998;2023-05-13T00:52:10;4.60;4.60;3.60
45700;PMS5003;36277;32.852;-116.998;2023-05-13T00:54:36;6.00;6.00;4.60
45700;PMS5003;36277;32.852;-116.998;2023-05-13T00:57:03;5.00;5.00;4.20
45700;PMS5003;36277;32.852;-116.998;2023-05-13T00:59:30;4.00;4.00;4.00
45700;PMS5003;36277;32.852;-116.998;2023-05-13T01:02:06;5.00;5.00;4.00
45700;PMS5003;36277;32.852;-116.998;2023-05-13T01:10:28;7.80;7.80;5.40
45700;PMS5003;36277;32.852;-116.998;2023-05-13T01:12:59;6.80;6.80;5.80
45700;PMS5003;36277;32.852;-116.998;2023-05-13T01:15:29;4.40;4.40;4.20
45700;PMS5003;36277;32.852;-116.998;2023-05-13T01:20:40;5.80;5.80;5.00
45700;PMS5003;36277;32.852;-116.998;2023-05-13T01:23:08;6.20;6.20;5.40
45700;PMS5003;36277;32.852;-116.998;2023-05-13T01:25:36;3.40;3.40;3.00
45700;PMS5003;36277;32.852;-116.998;2023-05-13T01:28:04;5.60;5.60;5.20
45700;PMS5003;36277;32.852;-116.998;2023-05-13T01:30:31;6.40;6.40;5.00
45700;PMS5003;36277;32.852;-116.998;2023-05-13T01:32:59;6.40;6.40;5.00
45700;PMS5003;36277;32.852;-116.998;2023-05-13T01:35:26;6.00;6.00;5.00
45700;PMS5003;36277;32.852;-116.998;2023-05-13T01:37:55;4.60;4.60;4.00
45700;PMS5003;36277;32.852;-116.998;2023-05-13T01:40:22;5.80;5.80;5.20
45700;PMS5003;36277;32.852;-116.998;2023-05-13T01:42:48;5.80;5.80;5.00
45700;PMS5003;36277;32.852;-116.998;2023-05-13T01:45:15;4.40;4.40;4.00
45700;PMS5003;36277;32.852;-116.998;2023-05-13T01:47:41;5.40;5.40;4.80
45700;PMS5003;36277;32.852;-116.998;2023-05-13T01:50:08;4.80;4.80;4.80
45700;PMS5003;36277;32.852;-116.998;2023-05-13T01:52:34;5.60;5.60;5.00
45700;PMS5003;36277;32.852;-116.998;2023-05-13T01:55:01;5.00;5.00;4.00
45700;PMS5003;36277;32.852;-116.998;2023-05-13T01:57:27;7.60;6.00;5.00
45700;PMS5003;36277;32.852;-116.998;2023-05-13T01:59:53;4.00;4.00;3.20
45700;PMS5003;36277;32.852;-116.998;2023-05-13T02:02:20;5.80;5.80;4.80
45700;PMS5003;36277;32.852;-116.998;2023-05-13T02:04:46;5.40;5.40;5.00
45700;PMS5003;36277;32.852;-116.998;2023-05-13T02:07:12;5.00;5.00;5.00
45700;PMS5003;36277;32.852;-116.998;2023-05-13T02:09:38;4.80;4.80;4.00
45700;PMS5003;36277;32.852;-116.998;2023-05-13T02:12:05;5.40;5.40;4.40
45700;PMS5003;36277;32.852;-116.998;2023-05-13T02:14:32;4.40;4.40;3.40
45700;PMS5003;36277;32.852;-116.998;2023-05-13T02:16:58;4.20;4.20;3.40
45700;PMS5003;36277;32.852;-116.998;2023-05-13T02:19:24;5.40;5.40;4.40
45700;PMS5003;36277;32.852;-116.998;2023-05-13T02:21:51;4.80;4.80;4.00
45700;PMS5003;36277;32.852;-116.998;2023-05-13T02:24:17;6.40;6.40;5.20
45700;PMS5003;36277;32.852;-116.998;2023-05-13T02:26:43;4.00;4.00;4.00
45700;PMS5003;36277;32.852;-116.998;2023-05-13T02:29:09;3.20;3.20;3.00
45700;PMS5003;36277;32.852;-116.998;2023-05-13T02:31:36;3.00;3.00;3.00
45700;PMS5003;36277;32.852;-116.998;2023-05-13T02:34:02;2.20;2.20;2.00
45700;PMS5003;36277;32.852;-116.998;2023-05-13T02:36:28;2.00;2.00;2.00
45700;PMS5003;36277;32.852;-116.998;2023-05-13T02:38:54;1.00;1.00;1.00
45700;PMS5003;36277;32.852;-116.998;2023-05-13T02:41:21;1.00;1.00;1.00
45700;PMS5003;36277;32.852;-116.998;2023-05-13T02:43:47;2.00;2.00;1.00
45700;PMS5003;36277;32.852;-116.998;2023-05-13T02:46:14;2.00;2.00;1.40
45700;PMS5003;36277;32.852;-116.998;2023-05-13T02:48:40;2.00;2.00;2.00
45700;PMS5003;36277;32.852;-116.998;2023-05-13T02:51:06;1.00;1.00;1.00
45700;PMS5003;36277;32.852;-116.998;2023-05-13T02:53:33;0.40;0.40;0.40
45700;PMS5003;36277;32.852;-116.998;2023-05-13T02:55:59;0.20;0.20;0.00
45700;PMS5003;36277;32.852;-116.998;2023-05-13T02:58:26;0.20;0.20;0.20
45700;PMS5003;36277;32.852;-116.998;2023-05-13T03:00:52;0.00;0.00;0.00
45700;PMS5003;36277;32.852;-116.998;2023-05-13T03:03:18;0.00;0.00;0.00
45700;PMS5003;36277;32.852;-116.998;2023-05-13T03:05:44;0.00;0.00;0.00
45700;PMS5003;36277;32.852;-116.998;2023-05-13T03:08:11;1.60;1.60;1.00
45700;PMS5003;36277;32.852;-116.998;2023-05-13T03:10:37;0.80;0.80;0.80
45700;PMS5003;36277;32.852;-116.998;2023-05-13T03:13:03;0.40;0.40;0.40
45700;PMS5003;36277;32.852;-116.998;2023-05-13T03:15:29;1.20;1.20;1.20
45700;PMS5003;36277;32.852;-116.998;2023-05-13T03:17:56;2.00;2.00;2.00
45700;PMS5003;36277;32.852;-116.998;2023-05-13T03:20:22;1.20;1.20;0.80
45700;PMS5003;36277;32.852;-116.998;2023-05-13T03:22:48;2.00;2.00;1.60
45700;PMS5003;36277;32.852;-116.998;2023-05-13T03:25:14;1.00;1.00;1.00
45700;PMS5003;36277;32.852;-116.998;2023-05-13T03:27:41;2.20;2.20;2.20
45700;PMS5003;36277;32.852;-116.998;2023-05-13T03:30:07;2.40;2.40;1.40
45700;PMS5003;36277;32.852;-116.998;2023-05-13T03:32:33;1.40;1.40;1.20
45700;PMS5003;36277;32.852;-116.998;2023-05-13T03:35:00;0.40;0.40;0.40
45700;PMS5003;36277;32.852;-116.998;2023-05-13T03:37:26;0.60;0.60;0.40
45700;PMS5003;36277;32.852;-116.998;2023-05-13T03:39:52;2.40;2.40;2.20
45700;PMS5003;36277;32.852;-116.998;2023-05-13T03:42:19;2.00;2.00;2.00
45700;PMS5003;36277;32.852;-116.998;2023-05-13T03:44:45;2.00;2.00;2.00
45700;PMS5003;36277;32.852;-116.998;2023-05-13T03:47:11;1.80;1.80;1.80
45700;PMS5003;36277;32.852;-116.998;2023-05-13T03:49:38;0.60;0.60;0.60
45700;PMS5003;36277;32.852;-116.998;2023-05-13T03:52:04;2.40;2.40;1.40
45700;PMS5003;36277;32.852;-116.998;2023-05-13T03:54:33;1.40;1.40;1.40
45700;PMS5003;36277;32.852;-116.998;2023-05-13T03:57:00;2.00;2.00;2.00
45700;PMS5003;36277;32.852;-116.998;2023-05-13T03:59:26;1.80;1.80;1.40
45700;PMS5003;36277;32.852;-116.998;2023-05-13T04:01:52;1.40;1.40;1.40
45700;PMS5003;36277;32.852;-116.998;2023-05-13T04:04:19;1.60;1.60;1.60
45700;PMS5003;36277;32.852;-116.998;2023-05-13T04:06:45;1.40;1.40;1.40
45700;PMS5003;36277;32.852;-116.998;2023-05-13T04:09:11;1.80;1.80;1.80
45700;PMS5003;36277;32.852;-116.998;2023-05-13T04:11:37;1.20;1.20;1.20
45700;PMS5003;36277;32.852;-116.998;2023-05-13T04:14:03;1.00;1.00;0.60
45700;PMS5003;36277;32.852;-116.998;2023-05-13T04:16:30;2.00;2.00;1.60
45700;PMS5003;36277;32.852;-116.998;2023-05-13T04:18:56;2.40;2.40;2.20
45700;PMS5003;36277;32.852;-116.998;2023-05-13T04:21:22;1.80;1.80;1.40
45700;PMS5003;36277;32.852;-116.998;2023-05-13T04:23:48;2.20;2.20;2.00
45700;PMS5003;36277;32.852;-116.998;2023-05-13T04:26:15;1.40;1.40;1.40
45700;PMS5003;36277;32.852;-116.998;2023-05-13T04:28:41;2.40;2.40;1.60
45700;PMS5003;36277;32.852;-116.998;2023-05-13T04:31:07;1.40;1.40;1.40
45700;PMS5003;36277;32.852;-116.998;2023-05-13T04:33:34;1.80;1.80;1.80
45700;PMS5003;36277;32.852;-116.998;2023-05-13T04:36:00;1.40;1.40;1.40
45700;PMS5003;36277;32.852;-116.998;2023-05-13T04:38:26;2.00;2.00;1.80
45700;PMS5003;36277;32.852;-116.998;2023-05-13T04:40:52;1.40;1.40;1.40
45700;PMS5003;36277;32.852;-116.998;2023-05-13T04:43:19;2.20;2.20;1.80
45700;PMS5003;36277;32.852;-116.998;2023-05-13T04:45:46;3.00;3.00;2.00
45700;PMS5003;36277;32.852;-116.998;2023-05-13T04:48:13;0.20;0.20;0.00
45700;PMS5003;36277;32.852;-116.998;2023-05-13T04:50:44;2.20;2.20;2.00
45700;PMS5003;36277;32.852;-116.998;2023-05-13T04:53:11;2.40;2.40;1.60
45700;PMS5003;36277;32.852;-116.998;2023-05-13T04:55:38;1.80;1.80;1.80
45700;PMS5003;36277;32.852;-116.998;2023-05-13T04:58:04;2.80;2.80;2.60
45700;PMS5003;36277;32.852;-116.998;2023-05-13T05:00:31;2.40;2.40;1.80
45700;PMS5003;36277;32.852;-116.998;2023-05-13T05:02:57;1.40;1.40;1.40
45700;PMS5003;36277;32.852;-116.998;2023-05-13T05:05:24;2.40;2.40;2.20
45700;PMS5003;36277;32.852;-116.998;2023-05-13T05:07:50;1.80;1.80;1.80
45700;PMS5003;36277;32.852;-116.998;2023-05-13T05:10:16;2.60;2.60;1.60
45700;PMS5003;36277;32.852;-116.998;2023-05-13T05:12:42;2.80;2.80;2.40
45700;PMS5003;36277;32.852;-116.998;2023-05-13T05:15:09;1.60;1.60;1.60
45700;PMS5003;36277;32.852;-116.998;2023-05-13T05:17:40;2.20;2.20;2.20
45700;PMS5003;36277;32.852;-116.998;2023-05-13T05:20:07;2.20;2.20;2.20
45700;PMS5003;36277;32.852;-116.998;2023-05-13T05:22:35;0.80;0.80;0.80
45700;PMS5003;36277;32.852;-116.998;2023-05-13T05:25:03;3.00;3.00;2.00
45700;PMS5003;36277;32.852;-116.998;2023-05-13T05:27:29;3.80;3.80;3.00
45700;PMS5003;36277;32.852;-116.998;2023-05-13T05:29:55;1.20;1.20;0.80
45700;PMS5003;36277;32.852;-116.998;2023-05-13T05:32:22;1.60;1.60;1.40
45700;PMS5003;36277;32.852;-116.998;2023-05-13T05:34:48;2.20;2.20;2.00
45700;PMS5003;36277;32.852;-116.998;2023-05-13T05:37:15;1.80;1.80;1.40
45700;PMS5003;36277;32.852;-116.998;2023-05-13T05:39:41;2.20;2.20;2.00
45700;PMS5003;36277;32.852;-116.998;2023-05-13T05:42:07;3.00;3.00;2.40
45700;PMS5003;36277;32.852;-116.998;2023-05-13T05:44:34;2.00;2.00;2.00
45700;PMS5003;36277;32.852;-116.998;2023-05-13T05:47:00;2.80;2.80;2.00
45700;PMS5003;36277;32.852;-116.998;2023-05-13T05:49:27;3.00;3.00;3.00
45700;PMS5003;36277;32.852;-116.998;2023-05-13T05:51:53;1.40;1.40;1.20
45700;PMS5003;36277;32.852;-116.998;2023-05-13T05:54:19;2.00;2.00;1.60
45700;PMS5003;36277;32.852;-116.998;2023-05-13T05:56:45;3.00;3.00;2.00
45700;PMS5003;36277;32.852;-116.998;2023-05-13T05:59:12;1.40;1.40;1.40
45700;PMS5003;36277;32.852;-116.998;2023-05-13T06:01:38;1.40;1.40;1.00
45700;PMS5003;36277;32.852;-116.998;2023-05-13T06:04:05;3.60;3.60;3.00
45700;PMS5003;36277;32.852;-116.998;2023-05-13T06:06:31;2.40;2.40;2.40
45700;PMS5003;36277;32.852;-116.998;2023-05-13T06:08:57;1.40;1.40;1.20
45700;PMS5003;36277;32.852;-116.998;2023-05-13T06:11:24;2.00;2.00;1.80
45700;PMS5003;36277;32.852;-116.998;2023-05-13T06:13:50;3.60;3.60;3.00
45700;PMS5003;36277;32.852;-116.998;2023-05-13T06:16:17;2.40;2.40;1.60
45700;PMS5003;36277;32.852;-116.998;2023-05-13T06:18:43;2.00;2.00;2.00
45700;PMS5003;36277;32.852;-116.998;2023-05-13T06:21:10;3.00;3.00;3.00
45700;PMS5003;36277;32.852;-116.998;2023-05-13T06:23:36;3.20;3.20;2.40
45700;PMS5003;36277;32.852;-116.998;2023-05-13T06:26:02;2.60;2.60;2.20
45700;PMS5003;36277;32.852;-116.998;2023-05-13T06:28:31;1.40;1.40;1.40
45700;PMS5003;36277;32.852;-116.998;2023-05-13T06:30:58;2.40;2.40;2.20
45700;PMS5003;36277;32.852;-116.998;2023-05-13T06:33:24;1.20;1.20;1.20
45700;PMS5003;36277;32.852;-116.998;2023-05-13T06:35:51;1.20;0.40;0.40
45700;PMS5003;36277;32.852;-116.998;2023-05-13T06:38:17;3.00;3.00;3.00
45700;PMS5003;36277;32.852;-116.998;2023-05-13T06:40:44;1.80;1.80;1.80
45700;PMS5003;36277;32.852;-116.998;2023-05-13T06:43:10;2.20;2.20;2.00
45700;PMS5003;36277;32.852;-116.998;2023-05-13T06:45:38;2.00;2.00;2.00
45700;PMS5003;36277;32.852;-116.998;2023-05-13T06:48:05;3.00;3.00;2.20
45700;PMS5003;36277;32.852;-116.998;2023-05-13T06:50:31;3.00;3.00;3.00
45700;PMS5003;36277;32.852;-116.998;2023-05-13T06:52:57;2.40;2.40;2.20
45700;PMS5003;36277;32.852;-116.998;2023-05-13T06:55:24;2.40;2.40;2.40
45700;PMS5003;36277;32.852;-116.998;2023-05-13T06:57:50;2.40;2.40;2.20
45700;PMS5003;36277;32.852;-116.998;2023-05-13T07:00:17;4.00;4.00;4.00
45700;PMS5003;36277;32.852;-116.998;2023-05-13T07:02:43;1.20;1.20;0.60
45700;PMS5003;36277;32.852;-116.998;2023-05-13T07:05:10;3.00;3.00;2.20
45700;PMS5003;36277;32.852;-116.998;2023-05-13T07:07:37;1.80;1.80;1.40
45700;PMS5003;36277;32.852;-116.998;2023-05-13T07:10:03;2.00;2.00;2.00
45700;PMS5003;36277;32.852;-116.998;2023-05-13T07:12:30;3.00;3.00;2.80
45700;PMS5003;36277;32.852;-116.998;2023-05-13T07:14:57;3.00;3.00;2.00
45700;PMS5003;36277;32.852;-116.998;2023-05-13T07:17:23;2.00;2.00;2.00
45700;PMS5003;36277;32.852;-116.998;2023-05-13T07:19:49;1.60;1.60;1.40
45700;PMS5003;36277;32.852;-116.998;2023-05-13T07:22:16;3.20;3.20;2.40
45700;PMS5003;36277;32.852;-116.998;2023-05-13T07:24:42;2.60;2.60;2.00
45700;PMS5003;36277;32.852;-116.998;2023-05-13T07:27:08;2.20;2.20;2.00
45700;PMS5003;36277;32.852;-116.998;2023-05-13T07:29:35;2.20;2.20;1.80
45700;PMS5003;36277;32.852;-116.998;2023-05-13T07:32:02;3.00;3.00;2.60
45700;PMS5003;36277;32.852;-116.998;2023-05-13T07:34:29;3.00;3.00;3.00
45700;PMS5003;36277;32.852;-116.998;2023-05-13T07:36:56;2.20;2.20;2.20
45700;PMS5003;36277;32.852;-116.998;2023-05-13T07:39:23;3.00;3.00;3.00
45700;PMS5003;36277;32.852;-116.998;2023-05-13T07:41:50;2.00;2.00;2.00
45700;PMS5003;36277;32.852;-116.998;2023-05-13T07:44:16;2.00;2.00;2.00
45700;PMS5003;36277;32.852;-116.998;2023-05-13T07:46:43;2.80;2.80;2.80
45700;PMS5003;36277;32.852;-116.998;2023-05-13T07:49:10;2.40;2.40;1.80
45700;PMS5003;36277;32.852;-116.998;2023-05-13T07:51:36;2.00;2.00;1.00
45700;PMS5003;36277;32.852;-116.998;2023-05-13T07:54:02;2.40;2.40;2.00
45700;PMS5003;36277;32.852;-116.998;2023-05-13T07:56:29;2.00;2.00;2.00
45700;PMS5003;36277;32.852;-116.998;2023-05-13T07:58:56;3.00;3.00;2.20
45700;PMS5003;36277;32.852;-116.998;2023-05-13T08:01:22;2.60;2.60;2.20
45700;PMS5003;36277;32.852;-116.998;2023-05-13T08:03:49;3.20;3.20;2.80
45700;PMS5003;36277;32.852;-116.998;2023-05-13T08:06:15;2.40;2.40;2.00
45700;PMS5003;36277;32.852;-116.998;2023-05-13T08:08:41;2.40;2.40;2.20
45700;PMS5003;36277;32.852;-116.998;2023-05-13T08:11:07;2.00;2.00;2.00
45700;PMS5003;36277;32.852;-116.998;2023-05-13T08:13:34;2.80;2.80;2.20
45700;PMS5003;36277;32.852;-116.998;2023-05-13T08:16:00;2.40;2.40;2.00
45700;PMS5003;36277;32.852;-116.998;2023-05-13T08:18:27;2.40;2.40;1.80
45700;PMS5003;36277;32.852;-116.998;2023-05-13T08:20:54;2.20;2.20;2.00
45700;PMS5003;36277;32.852;-116.998;2023-05-13T08:23:20;2.00;2.00;2.00
45700;PMS5003;36277;32.852;-116.998;2023-05-13T08:25:47;2.80;2.80;2.60
45700;PMS5003;36277;32.852;-116.998;2023-05-13T08:28:13;3.00;3.00;2.80
45700;PMS5003;36277;32.852;-116.998;2023-05-13T08:30:40;3.00;3.00;2.20
45700;PMS5003;36277;32.852;-116.998;2023-05-13T08:33:09;2.80;2.80;2.00
45700;PMS5003;36277;32.852;-116.998;2023-05-13T08:35:38;2.40;2.40;1.40
45700;PMS5003;36277;32.852;-116.998;2023-05-13T08:38:04;3.60;3.60;3.00
45700;PMS5003;36277;32.852;-116.998;2023-05-13T08:40:31;2.20;2.20;2.00
45700;PMS5003;36277;32.852;-116.998;2023-05-13T08:43:01;3.00;3.00;2.20
45700;PMS5003;36277;32.852;-116.998;2023-05-13T08:45:29;2.00;2.00;1.60
45700;PMS5003;36277;32.852;-116.998;2023-05-13T08:47:59;3.40;3.40;3.00
45700;PMS5003;36277;32.852;-116.998;2023-05-13T08:50:27;2.80;2.80;2.00
45700;PMS5003;36277;32.852;-116.998;2023-05-13T08:52:54;4.00;4.00;3.00
45700;PMS5003;36277;32.852;-116.998;2023-05-13T08:55:22;3.00;3.00;3.00
45700;PMS5003;36277;32.852;-116.998;2023-05-13T08:57:48;4.00;4.00;3.00
45700;PMS5003;36277;32.852;-116.998;2023-05-13T09:00:15;3.00;3.00;3.00
45700;PMS5003;36277;32.852;-116.998;2023-05-13T09:02:42;2.60;2.60;2.20
45700;PMS5003;36277;32.852;-116.998;2023-05-13T09:05:09;3.00;3.00;3.00
45700;PMS5003;36277;32.852;-116.998;2023-05-13T09:07:36;3.20;3.20;2.80
45700;PMS5003;36277;32.852;-116.998;2023-05-13T09:10:03;3.00;3.00;3.00
45700;PMS5003;36277;32.852;-116.998;2023-05-13T09:15:09;3.00;3.00;3.00
45700;PMS5003;36277;32.852;-116.998;2023-05-13T09:17:40;2.00;2.00;2.00
45700;PMS5003;36277;32.852;-116.998;2023-05-13T09:20:09;2.00;2.00;2.00
45700;PMS5003;36277;32.852;-116.998;2023-05-13T09:22:40;3.00;3.00;2.80
45700;PMS5003;36277;32.852;-116.998;2023-05-13T09:25:28;2.60;2.60;2.40
45700;PMS5003;36277;32.852;-116.998;2023-05-13T09:27:56;3.40;3.40;3.00
45700;PMS5003;36277;32.852;-116.998;2023-05-13T09:30:27;4.00;4.00;3.60
45700;PMS5003;36277;32.852;-116.998;2023-05-13T09:33:14;3.60;3.60;3.40
45700;PMS5003;36277;32.852;-116.998;2023-05-13T09:38:18;2.00;2.00;1.00
45700;PMS5003;36277;32.852;-116.998;2023-05-13T09:40:52;3.00;3.00;3.00
45700;PMS5003;36277;32.852;-116.998;2023-05-13T09:43:23;2.80;2.80;2.40
45700;PMS5003;36277;32.852;-116.998;2023-05-13T09:46:00;3.00;3.00;3.00
45700;PMS5003;36277;32.852;-116.998;2023-05-13T09:48:28;3.00;3.00;3.00
45700;PMS5003;36277;32.852;-116.998;2023-05-13T09:50:57;3.00;3.00;2.00
45700;PMS5003;36277;32.852;-116.998;2023-05-13T09:53:24;2.80;2.80;2.60
45700;PMS5003;36277;32.852;-116.998;2023-05-13T09:55:51;2.00;2.00;1.40
45700;PMS5003;36277;32.852;-116.998;2023-05-13T09:58:19;4.00;4.00;3.80
45700;PMS5003;36277;32.852;-116.998;2023-05-13T10:00:46;4.00;4.00;3.00
45700;PMS5003;36277;32.852;-116.998;2023-05-13T10:03:13;3.00;3.00;3.00
45700;PMS5003;36277;32.852;-116.998;2023-05-13T10:05:40;3.00;3.00;3.00
45700;PMS5003;36277;32.852;-116.998;2023-05-13T10:08:07;3.00;3.00;3.00
45700;PMS5003;36277;32.852;-116.998;2023-05-13T10:10:36;3.20;3.20;3.20
45700;PMS5003;36277;32.852;-116.998;2023-05-13T10:13:11;3.20;3.20;2.60
45700;PMS5003;36277;32.852;-116.998;2023-05-13T10:15:46;3.00;3.00;2.40
45700;PMS5003;36277;32.852;-116.998;2023-05-13T10:18:18;3.00;3.00;3.00
45700;PMS5003;36277;32.852;-116.998;2023-05-13T10:20:46;2.60;2.60;2.00
45700;PMS5003;36277;32.852;-116.998;2023-05-13T10:23:17;3.00;3.00;2.60
45700;PMS5003;36277;32.852;-116.998;2023-05-13T10:25:47;4.00;4.00;3.00
45700;PMS5003;36277;32.852;-116.998;2023-05-13T10:28:18;3.00;3.00;3.00
45700;PMS5003;36277;32.852;-116.998;2023-05-13T10:30:45;2.00;2.00;2.00
45700;PMS5003;36277;32.852;-116.998;2023-05-13T10:33:15;2.80;2.80;2.00
45700;PMS5003;36277;32.852;-116.998;2023-05-13T10:35:46;2.00;2.00;2.00
45700;PMS5003;36277;32.852;-116.998;2023-05-13T10:44:26;5.00;5.00;4.40
45700;PMS5003;36277;32.852;-116.998;2023-05-13T10:46:55;2.40;2.40;2.20
45700;PMS5003;36277;32.852;-116.998;2023-05-13T10:49:21;4.00;4.00;4.00
45700;PMS5003;36277;32.852;-116.998;2023-05-13T10:51:49;3.00;3.00;3.00
45700;PMS5003;36277;32.852;-116.998;2023-05-13T10:54:20;2.00;2.00;2.00
45700;PMS5003;36277;32.852;-116.998;2023-05-13T10:56:55;3.40;3.40;3.00
45700;PMS5003;36277;32.852;-116.998;2023-05-13T10:59:23;4.20;4.20;3.00
45700;PMS5003;36277;32.852;-116.998;2023-05-13T11:01:54;3.00;3.00;3.00
45700;PMS5003;36277;32.852;-116.998;2023-05-13T11:04:21;3.20;3.20;3.00
45700;PMS5003;36277;32.852;-116.998;2023-05-13T11:06:48;3.80;3.80;3.00
45700;PMS5003;36277;32.852;-116.998;2023-05-13T11:09:28;4.00;4.00;3.60
45700;PMS5003;36277;32.852;-116.998;2023-05-13T11:11:56;4.00;4.00;3.00
45700;PMS5003;36277;32.852;-116.998;2023-05-13T11:14:24;3.00;3.00;3.00
45700;PMS5003;36277;32.852;-116.998;2023-05-13T11:16:52;2.80;2.80;2.40
45700;PMS5003;36277;32.852;-116.998;2023-05-13T11:19:24;3.00;3.00;3.00
45700;PMS5003;36277;32.852;-116.998;2023-05-13T11:21:54;3.80;3.80;3.00
45700;PMS5003;36277;32.852;-116.998;2023-05-13T11:24:22;2.60;2.60;2.40
45700;PMS5003;36277;32.852;-116.998;2023-05-13T11:26:53;3.40;3.40;3.40
45700;PMS5003;36277;32.852;-116.998;2023-05-13T11:29:29;3.40;3.40;3.00
45700;PMS5003;36277;32.852;-116.998;2023-05-13T11:31:56;4.60;4.60;3.40
45700;PMS5003;36277;32.852;-116.998;2023-05-13T11:34:24;4.40;4.40;4.00
45700;PMS5003;36277;32.852;-116.998;2023-05-13T11:36:54;3.00;3.00;3.00
45700;PMS5003;36277;32.852;-116.998;2023-05-13T11:39:31;3.00;3.00;3.00
45700;PMS5003;36277;32.852;-116.998;2023-05-13T11:41:58;3.00;3.00;3.00
45700;PMS5003;36277;32.852;-116.998;2023-05-13T11:44:29;3.80;3.80;3.60
45700;PMS5003;36277;32.852;-116.998;2023-05-13T11:46:56;2.00;2.00;1.00
45700;PMS5003;36277;32.852;-116.998;2023-05-13T11:52:15;3.00;3.00;3.00
45700;PMS5003;36277;32.852;-116.998;2023-05-13T11:54:46;3.00;3.00;3.00
45700;PMS5003;36277;32.852;-116.998;2023-05-13T11:59:50;3.00;3.00;2.40
45700;PMS5003;36277;32.852;-116.998;2023-05-13T12:02:24;1.60;1.60;1.60
45700;PMS5003;36277;32.852;-116.998;2023-05-13T12:04:52;4.00;4.00;3.00
45700;PMS5003;36277;32.852;-116.998;2023-05-13T12:07:20;4.00;4.00;3.80
45700;PMS5003;36277;32.852;-116.998;2023-05-13T12:09:48;2.40;2.40;2.00
45700;PMS5003;36277;32.852;-116.998;2023-05-13T12:12:15;3.20;3.20;3.20
45700;PMS5003;36277;32.852;-116.998;2023-05-13T12:14:42;3.00;3.00;3.00
45700;PMS5003;36277;32.852;-116.998;2023-05-13T12:17:11;4.00;4.00;3.60
45700;PMS5003;36277;32.852;-116.998;2023-05-13T12:19:38;4.00;4.00;3.00
45700;PMS5003;36277;32.852;-116.998;2023-05-13T12:22:06;2.00;2.00;2.00
45700;PMS5003;36277;32.852;-116.998;2023-05-13T12:24:33;4.60;4.60;4.00
45700;PMS5003;36277;32.852;-116.998;2023-05-13T12:27:06;3.00;3.00;3.00
45700;PMS5003;36277;32.852;-116.998;2023-05-13T12:29:41;5.00;5.00;4.00
45700;PMS5003;36277;32.852;-116.998;2023-05-13T12:32:08;3.00;3.00;2.40
45700;PMS5003;36277;32.852;-116.998;2023-05-13T12:34:36;4.80;4.80;4.00
45700;PMS5003;36277;32.852;-116.998;2023-05-13T12:37:10;4.80;4.80;4.20
45700;PMS5003;36277;32.852;-116.998;2023-05-13T12:39:37;3.20;3.20;3.00
45700;PMS5003;36277;32.852;-116.998;2023-05-13T12:42:05;4.20;4.20;3.80
45700;PMS5003;36277;32.852;-116.998;2023-05-13T12:44:40;3.00;3.00;3.00
45700;PMS5003;36277;32.852;-116.998;2023-05-13T12:47:07;4.00;4.00;3.60
45700;PMS5003;36277;32.852;-116.998;2023-05-13T12:49:35;4.00;4.00;3.00
45700;PMS5003;36277;32.852;-116.998;2023-05-13T12:52:15;4.00;4.00;3.00
45700;PMS5003;36277;32.852;-116.998;2023-05-13T12:54:41;3.40;3.40;3.00
45700;PMS5003;36277;32.852;-116.998;2023-05-13T12:57:08;3.20;3.20;3.00
45700;PMS5003;36277;32.852;-116.998;2023-05-13T12:59:34;3.00;3.00;2.80
45700;PMS5003;36277;32.852;-116.998;2023-05-13T13:02:01;4.00;4.00;3.80
45700;PMS5003;36277;32.852;-116.998;2023-05-13T13:04:27;4.00;4.00;4.00
45700;PMS5003;36277;32.852;-116.998;2023-05-13T13:06:55;4.00;4.00;4.00
45700;PMS5003;36277;32.852;-116.998;2023-05-13T13:09:21;4.00;4.00;3.00
45700;PMS5003;36277;32.852;-116.998;2023-05-13T13:11:47;4.60;4.60;4.00
45700;PMS5003;36277;32.852;-116.998;2023-05-13T13:14:13;3.00;3.00;3.00
45700;PMS5003;36277;32.852;-116.998;2023-05-13T13:16:40;5.40;5.40;3.80
45700;PMS5003;36277;32.852;-116.998;2023-05-13T13:19:07;5.60;5.60;4.80
45700;PMS5003;36277;32.852;-116.998;2023-05-13T13:21:33;4.80;4.80;4.00
45700;PMS5003;36277;32.852;-116.998;2023-05-13T13:23:59;3.80;3.80;3.00
45700;PMS5003;36277;32.852;-116.998;2023-05-13T13:26:25;4.00;4.00;3.20
45700;PMS5003;36277;32.852;-116.998;2023-05-13T13:28:51;4.00;4.00;3.60
45700;PMS5003;36277;32.852;-116.998;2023-05-13T13:31:18;4.80;4.80;4.00
45700;PMS5003;36277;32.852;-116.998;2023-05-13T13:33:44;4.20;4.20;4.00
45700;PMS5003;36277;32.852;-116.998;2023-05-13T13:36:11;4.00;4.00;3.80
45700;PMS5003;36277;32.852;-116.998;2023-05-13T13:38:37;3.80;3.80;3.00
45700;PMS5003;36277;32.852;-116.998;2023-05-13T13:41:03;5.00;5.00;4.20
45700;PMS5003;36277;32.852;-116.998;2023-05-13T13:43:30;4.40;4.40;4.00
45700;PMS5003;36277;32.852;-116.998;2023-05-13T13:45:56;3.60;3.60;3.00
45700;PMS5003;36277;32.852;-116.998;2023-05-13T13:48:23;4.80;4.80;4.00
45700;PMS5003;36277;32.852;-116.998;2023-05-13T13:50:49;4.60;4.60;3.20
45700;PMS5003;36277;32.852;-116.998;2023-05-13T13:53:16;4.80;4.80;4.00
45700;PMS5003;36277;32.852;-116.998;2023-05-13T13:55:43;4.00;4.00;4.00
45700;PMS5003;36277;32.852;-116.998;2023-05-13T13:58:09;4.00;4.00;3.40
45700;PMS5003;36277;32.852;-116.998;2023-05-13T14:00:35;4.80;4.80;4.00
45700;PMS5003;36277;32.852;-116.998;2023-05-13T14:03:02;2.20;2.20;2.00
45700;PMS5003;36277;32.852;-116.998;2023-05-13T14:05:28;4.00;4.00;4.00
45700;PMS5003;36277;32.852;-116.998;2023-05-13T14:07:54;5.00;5.00;4.00
45700;PMS5003;36277;32.852;-116.998;2023-05-13T14:10:20;4.20;4.20;3.40
45700;PMS5003;36277;32.852;-116.998;2023-05-13T14:12:47;4.00;4.00;3.00